De Beque, Colorado
Current Conditions -  °F | °C
As of 8:53 AM on Sunday 25 Jan 2015 (Local Time) from KGJT Reporting Station
Clear Clear  
Wind Chill: 23°   Ceiling: Unl
Heat Index: 29°   Visibility: 10mi
Dew Point: 17°   Wind: 6mph
Humidity: 61%   Direction: 140°SE
Pressure: 30.39"   Gusts: NA
Location:  39.33°N, 108.22°W
Report Text: KGJT 251553Z 14005KT 10SM CLR M02/M08 A3039 RMK AO2 SLP317 T10171083
Loading
Personal Weather Stations






























Interactive Weather Map New forecast layout! Learn more

10-Day Weather Forecast

Advertisements
Track Severe Weather on mobile